Time,TemperatureF,DewpointF,PressureIn,WindDirection,WindDirectionDegrees,WindSpeedMPH,WindSpeedGustMPH,Humidity,HourlyPrecipIn,Conditions,Clouds,dailyrainin,SolarRadiationWatts/m^2,SoftwareType,DateUTC
2013-02-27 00:03:00,36.3,34.5,29.84,North,360,9.0,14.0,93,0.29,,,0.02,0,Wunderground v.1.15,2013-02-27 05:03:00,
2013-02-27 00:07:00,36.3,34.5,29.84,North,360,11.0,14.0,93,0.26,,,0.03,0,Wunderground v.1.15,2013-02-27 05:07:00,
2013-02-27 00:09:00,36.5,34.7,29.84,North,360,11.0,14.0,93,0.14,,,0.03,0,Wunderground v.1.15,2013-02-27 05:09:00,
2013-02-27 00:13:00,36.5,34.7,29.84,North,360,9.0,9.0,93,0.10,,,0.04,0,Wunderground v.1.15,2013-02-27 05:13:00,
2013-02-27 00:19:00,36.5,34.7,29.87,North,360,7.0,9.0,93,0.08,,,0.04,0,Wunderground v.1.15,2013-02-27 05:19:00,
2013-02-27 00:26:00,36.5,34.9,29.87,North,360,7.0,7.0,94,0.06,,,0.05,0,Wunderground v.1.15,2013-02-27 05:26:00,
2013-02-27 00:31:00,36.6,35.0,29.87,North,360,8.0,10.0,94,0.16,,,0.07,0,Wunderground v.1.15,2013-02-27 05:31:00,
2013-02-27 00:37:00,36.6,35.0,29.87,North,360,7.0,8.0,94,0.10,,,0.07,0,Wunderground v.1.15,2013-02-27 05:37:00,
2013-02-27 00:43:00,36.6,35.0,29.87,NNE,17,7.0,7.0,94,0.20,,,0.09,0,Wunderground v.1.15,2013-02-27 05:43:00,
2013-02-27 00:49:00,36.6,35.0,29.87,North,360,7.0,10.0,94,0.18,,,0.11,0,Wunderground v.1.15,2013-02-27 05:49:00,
2013-02-27 00:57:00,36.8,35.2,29.87,North,360,8.0,12.0,94,0.14,,,0.13,0,Wunderground v.1.15,2013-02-27 05:57:00,
2013-02-27 01:03:00,36.8,35.2,29.85,North,360,9.0,11.0,94,0.29,,,0.16,0,Wunderground v.1.15,2013-02-27 06:03:00,
2013-02-27 01:09:00,36.8,35.2,29.85,North,360,8.0,15.0,94,0.19,,,0.18,0,Wunderground v.1.15,2013-02-27 06:09:00,
2013-02-27 01:15:00,36.8,35.2,29.85,North,360,8.0,15.0,94,0.08,,,0.19,0,Wunderground v.1.15,2013-02-27 06:15:00,
2013-02-27 01:21:00,36.8,35.2,29.85,North,360,8.0,15.0,94,0.12,,,0.20,0,Wunderground v.1.15,2013-02-27 06:21:00,
2013-02-27 01:27:00,36.9,35.3,29.85,North,360,7.0,8.0,94,0.08,,,0.20,0,Wunderground v.1.15,2013-02-27 06:27:00,
2013-02-27 01:32:00,36.9,35.6,29.83,North,360,6.0,12.0,95,0.05,,,0.20,0,Wunderground v.1.15,2013-02-27 06:32:00,
2013-02-27 01:38:00,37.0,35.7,29.83,North,360,7.0,12.0,95,0.04,,,0.21,0,Wunderground v.1.15,2013-02-27 06:38:00,
2013-02-27 01:44:00,37.2,35.9,29.83,NNE,18,8.0,8.0,95,0.04,,,0.21,0,Wunderground v.1.15,2013-02-27 06:44:00,
2013-02-27 01:50:00,37.2,35.9,29.82,NNE,13,8.0,8.0,95,0.05,,,0.22,0,Wunderground v.1.15,2013-02-27 06:50:00,
2013-02-27 01:58:00,37.3,36.0,29.82,North,360,8.0,10.0,95,0.06,,,0.23,0,Wunderground v.1.15,2013-02-27 06:58:00,
2013-02-27 02:04:00,37.3,36.0,29.81,North,360,8.0,8.0,95,0.10,,,0.24,0,Wunderground v.1.15,2013-02-27 07:04:00,
2013-02-27 02:09:00,37.5,36.2,29.81,North,360,8.0,12.0,95,0.10,,,0.24,0,Wunderground v.1.15,2013-02-27 07:09:00,
2013-02-27 02:16:00,37.6,36.3,29.80,North,360,9.0,15.0,95,0.07,,,0.25,0,Wunderground v.1.15,2013-02-27 07:16:00,
2013-02-27 02:24:00,37.6,36.3,29.80,North,360,8.0,9.0,95,0.09,,,0.26,0,Wunderground v.1.15,2013-02-27 07:24:00,
2013-02-27 02:30:00,37.6,36.3,29.78,North,360,7.0,9.0,95,0.08,,,0.27,0,Wunderground v.1.15,2013-02-27 07:30:00,
2013-02-27 02:37:00,37.6,36.3,29.78,North,360,8.0,15.0,95,0.07,,,0.28,0,Wunderground v.1.15,2013-02-27 07:37:00,
2013-02-27 02:43:00,37.8,36.5,29.78,North,360,6.0,10.0,95,0.07,,,0.29,0,Wunderground v.1.15,2013-02-27 07:43:00,
2013-02-27 02:49:00,37.8,36.5,29.77,North,360,6.0,10.0,95,0.11,,,0.30,0,Wunderground v.1.15,2013-02-27 07:49:00,
2013-02-27 02:56:00,37.8,36.5,29.77,North,360,6.0,7.0,95,0.09,,,0.31,0,Wunderground v.1.15,2013-02-27 07:56:00,
2013-02-27 03:03:00,37.8,36.5,29.75,North,360,7.0,9.0,95,0.11,,,0.32,0,Wunderground v.1.15,2013-02-27 08:03:00,
2013-02-27 03:09:00,37.8,36.5,29.75,North,360,6.0,9.0,95,0.06,,,0.32,0,Wunderground v.1.15,2013-02-27 08:09:00,
2013-02-27 03:16:00,37.9,36.6,29.74,North,360,6.0,8.0,95,0.19,,,0.34,0,Wunderground v.1.15,2013-02-27 08:16:00,
2013-02-27 03:23:00,37.9,36.9,29.74,NNE,17,5.0,7.0,96,0.10,,,0.35,0,Wunderground v.1.15,2013-02-27 08:23:00,
2013-02-27 03:29:00,38.0,37.0,29.74,North,360,6.0,7.0,96,0.06,,,0.36,0,Wunderground v.1.15,2013-02-27 08:29:00,
2013-02-27 03:36:00,38.2,37.2,29.74,North,360,5.0,6.0,96,0.09,,,0.37,0,Wunderground v.1.15,2013-02-27 08:36:00,
2013-02-27 03:43:00,38.2,37.2,29.74,North,360,5.0,8.0,96,0.24,,,0.40,0,Wunderground v.1.15,2013-02-27 08:43:00,
2013-02-27 03:49:00,38.3,37.3,29.72,NNE,15,6.0,8.0,96,0.17,,,0.42,0,Wunderground v.1.15,2013-02-27 08:49:00,
2013-02-27 03:56:00,38.5,37.5,29.72,North,360,6.0,11.0,96,0.16,,,0.44,0,Wunderground v.1.15,2013-02-27 08:56:00,
2013-02-27 04:03:00,38.6,37.6,29.71,North,360,6.0,12.0,96,0.13,,,0.45,0,Wunderground v.1.15,2013-02-27 09:03:00,
2013-02-27 04:09:00,38.6,37.6,29.71,North,360,6.0,12.0,96,0.11,,,0.46,0,Wunderground v.1.15,2013-02-27 09:09:00,
2013-02-27 04:15:00,38.8,38.0,29.71,North,360,5.0,6.0,97,0.10,,,0.47,0,Wunderground v.1.15,2013-02-27 09:15:00,
2013-02-27 04:24:00,38.9,38.1,29.71,North,360,5.0,10.0,97,0.16,,,0.49,0,Wunderground v.1.15,2013-02-27 09:24:00,
2013-02-27 04:30:00,39.2,38.4,29.70,North,360,6.0,10.0,97,0.18,,,0.51,0,Wunderground v.1.15,2013-02-27 09:30:00,
2013-02-27 04:38:00,39.3,38.5,29.70,North,360,6.0,6.0,97,0.14,,,0.53,0,Wunderground v.1.15,2013-02-27 09:38:00,
2013-02-27 04:44:00,39.3,38.5,29.70,North,360,6.0,8.0,97,0.09,,,0.54,0,Wunderground v.1.15,2013-02-27 09:44:00,
2013-02-27 04:50:00,39.5,38.7,29.69,North,360,5.0,8.0,97,0.10,,,0.54,0,Wunderground v.1.15,2013-02-27 09:50:00,
2013-02-27 04:56:00,39.6,38.8,29.69,North,360,5.0,9.0,97,0.12,,,0.56,0,Wunderground v.1.15,2013-02-27 09:56:00,
2013-02-27 05:04:00,39.9,39.1,29.68,North,360,5.0,11.0,97,0.09,,,0.57,0,Wunderground v.1.15,2013-02-27 10:04:00,
2013-02-27 05:09:00,40.1,39.3,29.68,North,360,5.0,11.0,97,0.09,,,0.58,0,Wunderground v.1.15,2013-02-27 10:09:00,
2013-02-27 05:17:00,40.2,39.4,29.67,North,360,4.0,5.0,97,0.18,,,0.60,0,Wunderground v.1.15,2013-02-27 10:17:00,
2013-02-27 05:23:00,40.3,39.5,29.67,North,360,4.0,4.0,97,0.18,,,0.62,0,Wunderground v.1.15,2013-02-27 10:23:00,
2013-02-27 05:29:00,40.5,39.7,29.66,North,360,5.0,9.0,97,0.27,,,0.64,0,Wunderground v.1.15,2013-02-27 10:29:00,
2013-02-27 05:36:00,40.6,39.8,29.66,North,360,5.0,8.0,97,0.16,,,0.67,0,Wunderground v.1.15,2013-02-27 10:36:00,
2013-02-27 05:41:00,40.8,40.0,29.66,North,360,5.0,8.0,97,0.14,,,0.68,0,Wunderground v.1.15,2013-02-27 10:41:00,
2013-02-27 05:47:00,41.1,40.6,29.64,North,360,7.0,9.0,98,0.16,,,0.69,0,Wunderground v.1.15,2013-02-27 10:47:00,
2013-02-27 05:53:00,41.3,40.8,29.64,North,360,6.0,7.0,98,0.07,,,0.70,0,Wunderground v.1.15,2013-02-27 10:53:00,
2013-02-27 05:59:00,41.5,40.7,29.64,North,360,4.0,7.0,97,0.07,,,0.70,0,Wunderground v.1.15,2013-02-27 10:59:00,
2013-02-27 06:07:00,41.9,41.4,29.64,North,360,7.0,7.0,98,0.05,,,0.71,0,Wunderground v.1.15,2013-02-27 11:07:00,
2013-02-27 06:13:00,42.2,41.7,29.64,North,360,6.0,10.0,98,0.05,,,0.71,0,Wunderground v.1.15,2013-02-27 11:13:00,
2013-02-27 06:19:00,42.5,42.0,29.62,North,360,7.0,10.0,98,0.04,,,0.71,0,Wunderground v.1.15,2013-02-27 11:19:00,
2013-02-27 06:27:00,42.8,42.3,29.62,North,360,8.0,8.0,98,0.00,,,0.72,0,Wunderground v.1.15,2013-02-27 11:27:00,
2013-02-27 06:33:00,42.9,42.4,29.61,North,360,8.0,8.0,98,0.00,,,0.72,0,Wunderground v.1.15,2013-02-27 11:33:00,
2013-02-27 06:39:00,43.2,42.7,29.61,North,360,8.0,12.0,98,0.00,,,0.72,0,Wunderground v.1.15,2013-02-27 11:39:00,
2013-02-27 06:47:00,43.3,42.5,29.61,NNE,15,9.0,10.0,97,0.04,,,0.73,0,Wunderground v.1.15,2013-02-27 11:47:00,
2013-02-27 06:53:00,43.5,42.7,29.61,NNE,16,8.0,13.0,97,0.05,,,0.74,0,Wunderground v.1.15,2013-02-27 11:53:00,
2013-02-27 06:59:00,43.6,42.8,29.61,North,360,8.0,13.0,97,0.05,,,0.74,0,Wunderground v.1.15,2013-02-27 11:59:00,
2013-02-27 07:05:00,43.6,42.8,29.60,North,360,8.0,18.0,97,0.09,,,0.75,11,Wunderground v.1.15,2013-02-27 12:05:00,
2013-02-27 07:13:00,43.8,43.0,29.60,North,360,9.0,9.0,97,0.08,,,0.76,11,Wunderground v.1.15,2013-02-27 12:13:00,
2013-02-27 07:18:00,43.9,43.1,29.59,North,360,9.0,10.0,97,0.06,,,0.77,7,Wunderground v.1.15,2013-02-27 12:18:00,
2013-02-27 07:24:00,43.9,43.1,29.59,North,360,9.0,9.0,97,0.06,,,0.77,12,Wunderground v.1.15,2013-02-27 12:24:00,
2013-02-27 07:30:00,44.1,43.3,29.58,North,360,9.0,9.0,97,0.05,,,0.78,19,Wunderground v.1.15,2013-02-27 12:30:00,
2013-02-27 07:38:00,44.2,43.4,29.58,North,360,9.0,11.0,97,0.05,,,0.78,11,Wunderground v.1.15,2013-02-27 12:38:00,
2013-02-27 07:44:00,44.3,43.5,29.58,North,360,9.0,9.0,97,0.04,,,0.78,14,Wunderground v.1.15,2013-02-27 12:44:00,
2013-02-27 07:50:00,44.5,43.7,29.57,North,360,9.0,11.0,97,0.04,,,0.79,14,Wunderground v.1.15,2013-02-27 12:50:00,
2013-02-27 07:58:00,44.8,44.0,29.57,North,360,11.0,13.0,97,0.06,,,0.80,14,Wunderground v.1.15,2013-02-27 12:58:00,
2013-02-27 08:04:00,44.9,44.1,29.57,North,360,11.0,13.0,97,0.06,,,0.80,12,Wunderground v.1.15,2013-02-27 13:04:00,
2013-02-27 08:10:00,44.9,44.1,29.57,NNE,13,13.0,13.0,97,0.04,,,0.80,14,Wunderground v.1.15,2013-02-27 13:10:00,
2013-02-27 08:16:00,44.9,44.1,29.57,North,360,11.0,16.0,97,0.04,,,0.81,18,Wunderground v.1.15,2013-02-27 13:16:00,
2013-02-27 08:24:00,45.1,44.0,29.57,NNE,15,11.0,11.0,96,0.04,,,0.81,25,Wunderground v.1.15,2013-02-27 13:24:00,
2013-02-27 08:30:00,45.1,44.0,29.56,North,360,10.0,12.0,96,0.00,,,0.82,19,Wunderground v.1.15,2013-02-27 13:30:00,
2013-02-27 08:36:00,45.1,44.0,29.56,North,360,10.0,18.0,96,0.00,,,0.82,32,Wunderground v.1.15,2013-02-27 13:36:00,
2013-02-27 08:41:00,45.1,44.0,29.56,North,360,11.0,18.0,96,0.00,,,0.82,26,Wunderground v.1.15,2013-02-27 13:41:00,
2013-02-27 08:47:00,45.1,44.0,29.56,North,360,11.0,15.0,96,0.00,,,0.82,39,Wunderground v.1.15,2013-02-27 13:47:00,
2013-02-27 08:53:00,45.2,43.9,29.56,North,360,11.0,15.0,95,0.00,,,0.82,46,Wunderground v.1.15,2013-02-27 13:53:00,
2013-02-27 08:59:00,45.2,43.9,29.56,NNE,14,11.0,15.0,95,0.00,,,0.83,56,Wunderground v.1.15,2013-02-27 13:59:00,
2013-02-27 09:07:00,45.4,44.1,29.54,North,360,11.0,11.0,95,0.11,,,0.84,63,Wunderground v.1.15,2013-02-27 14:07:00,
2013-02-27 09:13:00,45.2,43.9,29.54,North,360,11.0,14.0,95,0.06,,,0.84,53,Wunderground v.1.15,2013-02-27 14:13:00,
2013-02-27 09:19:00,45.2,43.9,29.54,North,360,11.0,14.0,95,0.04,,,0.84,37,Wunderground v.1.15,2013-02-27 14:19:00,
2013-02-27 09:27:00,45.2,43.9,29.54,NNE,14,11.0,13.0,95,0.00,,,0.85,53,Wunderground v.1.15,2013-02-27 14:27:00,
2013-02-27 09:33:00,45.2,43.9,29.52,NNE,13,11.0,13.0,95,0.00,,,0.85,46,Wunderground v.1.15,2013-02-27 14:33:00,
2013-02-27 09:39:00,45.1,43.8,29.52,North,5,10.0,13.0,95,0.00,,,0.85,62,Wunderground v.1.15,2013-02-27 14:39:00,
2013-02-27 09:47:00,45.1,43.8,29.52,North,360,10.0,19.0,95,0.00,,,0.85,102,Wunderground v.1.15,2013-02-27 14:47:00,
2013-02-27 09:53:00,45.2,43.9,29.52,North,360,11.0,11.0,95,0.00,,,0.86,109,Wunderground v.1.15,2013-02-27 14:53:00,
2013-02-27 09:59:00,45.2,43.9,29.52,NNE,13,12.0,16.0,95,0.00,,,0.86,47,Wunderground v.1.15,2013-02-27 14:59:00,
2013-02-27 10:07:00,45.2,43.9,29.52,North,360,12.0,12.0,95,0.00,,,0.86,60,Wunderground v.1.15,2013-02-27 15:07:00,
2013-02-27 10:13:00,45.2,43.9,29.52,North,360,9.0,24.0,95,0.00,,,0.86,69,Wunderground v.1.15,2013-02-27 15:13:00,
2013-02-27 10:18:00,45.2,43.9,29.51,North,9,10.0,24.0,95,0.00,,,0.86,60,Wunderground v.1.15,2013-02-27 15:18:00,
2013-02-27 10:24:00,45.1,43.8,29.51,North,360,10.0,11.0,95,0.00,,,0.86,60,Wunderground v.1.15,2013-02-27 15:24:00,
2013-02-27 10:30:00,45.1,43.8,29.50,North,360,10.0,12.0,95,0.00,,,0.86,72,Wunderground v.1.15,2013-02-27 15:30:00,
2013-02-27 10:38:00,45.1,43.8,29.50,North,360,10.0,12.0,95,0.00,,,0.86,104,Wunderground v.1.15,2013-02-27 15:38:00,
2013-02-27 10:44:00,45.1,43.8,29.50,North,360,10.0,10.0,95,0.00,,,0.86,67,Wunderground v.1.15,2013-02-27 15:44:00,
2013-02-27 10:50:00,45.1,43.8,29.50,North,360,10.0,14.0,95,0.00,,,0.86,37,Wunderground v.1.15,2013-02-27 15:50:00,
2013-02-27 10:58:00,45.1,43.8,29.50,North,360,8.0,9.0,95,0.00,,,0.86,58,Wunderground v.1.15,2013-02-27 15:58:00,
2013-02-27 11:04:00,45.1,43.8,29.50,NNE,15,7.0,17.0,95,0.00,,,0.86,51,Wunderground v.1.15,2013-02-27 16:04:00,
2013-02-27 11:09:00,44.9,43.6,29.50,North,9,7.0,17.0,95,0.00,,,0.87,65,Wunderground v.1.15,2013-02-27 16:09:00,
2013-02-27 11:16:00,44.9,43.6,29.51,North,360,7.0,7.0,95,0.00,,,0.87,33,Wunderground v.1.15,2013-02-27 16:16:00,
2013-02-27 11:21:00,44.9,43.6,29.51,North,360,7.0,8.0,95,0.00,,,0.87,62,Wunderground v.1.15,2013-02-27 16:21:00,
2013-02-27 11:28:00,44.8,43.5,29.51,North,5,7.0,8.0,95,0.00,,,0.88,83,Wunderground v.1.15,2013-02-27 16:28:00,
2013-02-27 11:33:00,44.9,43.6,29.49,North,360,7.0,7.0,95,0.00,,,0.88,88,Wunderground v.1.15,2013-02-27 16:33:00,
2013-02-27 11:39:00,44.9,43.8,29.49,North,360,6.0,7.0,96,0.00,,,0.88,97,Wunderground v.1.15,2013-02-27 16:39:00,
2013-02-27 11:47:00,44.9,43.8,29.48,North,11,6.0,9.0,96,0.00,,,0.88,95,Wunderground v.1.15,2013-02-27 16:47:00,
2013-02-27 11:53:00,45.1,44.0,29.48,North,360,6.0,6.0,96,0.00,,,0.88,91,Wunderground v.1.15,2013-02-27 16:53:00,
2013-02-27 11:59:00,45.1,44.0,29.48,North,360,5.0,9.0,96,0.00,,,0.88,84,Wunderground v.1.15,2013-02-27 16:59:00,
2013-02-27 12:07:00,45.1,44.0,29.48,North,360,6.0,6.0,96,0.00,,,0.88,125,Wunderground v.1.15,2013-02-27 17:07:00,
2013-02-27 12:13:00,45.2,44.1,29.48,North,9,5.0,6.0,96,0.00,,,0.88,56,Wunderground v.1.15,2013-02-27 17:13:00,
2013-02-27 12:19:00,45.1,44.0,29.48,NNE,15,7.0,7.0,96,0.00,,,0.88,47,Wunderground v.1.15,2013-02-27 17:19:00,
2013-02-27 12:26:00,45.2,44.1,29.48,North,360,6.0,8.0,96,0.00,,,0.88,54,Wunderground v.1.15,2013-02-27 17:26:00,
2013-02-27 12:33:00,45.2,44.1,29.47,North,360,5.0,5.0,96,0.00,,,0.88,53,Wunderground v.1.15,2013-02-27 17:33:00,
2013-02-27 12:39:00,45.2,44.1,29.47,North,9,5.0,12.0,96,0.00,,,0.88,58,Wunderground v.1.15,2013-02-27 17:39:00,
2013-02-27 12:46:00,45.4,44.3,29.46,North,360,5.0,5.0,96,0.00,,,0.88,40,Wunderground v.1.15,2013-02-27 17:46:00,
2013-02-27 12:53:00,45.4,44.3,29.46,North,360,2.0,2.0,96,0.00,,,0.88,33,Wunderground v.1.15,2013-02-27 17:53:00,
2013-02-27 12:59:00,45.2,44.1,29.46,North,360,3.0,3.0,96,0.00,,,0.88,33,Wunderground v.1.15,2013-02-27 17:59:00,
2013-02-27 13:07:00,45.2,44.1,29.48,North,360,3.0,4.0,96,0.00,,,0.88,30,Wunderground v.1.15,2013-02-27 18:07:00,
2013-02-27 13:13:00,45.2,44.1,29.48,NNE,13,3.0,4.0,96,0.00,,,0.88,49,Wunderground v.1.15,2013-02-27 18:13:00,
2013-02-27 13:18:00,45.2,44.1,29.47,North,360,3.0,5.0,96,0.00,,,0.88,67,Wunderground v.1.15,2013-02-27 18:18:00,
2013-02-27 13:24:00,45.2,44.1,29.47,North,360,4.0,4.0,96,0.00,,,0.88,60,Wunderground v.1.15,2013-02-27 18:24:00,
2013-02-27 13:30:00,45.1,44.0,29.46,North,360,5.0,5.0,96,0.00,,,0.88,51,Wunderground v.1.15,2013-02-27 18:30:00,
2013-02-27 13:37:00,44.9,43.8,29.46,North,360,5.0,8.0,96,0.00,,,0.88,47,Wunderground v.1.15,2013-02-27 18:37:00,
2013-02-27 13:44:00,44.9,43.8,29.46,North,360,4.0,4.0,96,0.00,,,0.88,58,Wunderground v.1.15,2013-02-27 18:44:00,
2013-02-27 13:50:00,44.8,43.7,29.46,North,360,4.0,7.0,96,0.00,,,0.88,47,Wunderground v.1.15,2013-02-27 18:50:00,
2013-02-27 13:56:00,44.8,44.0,29.46,North,360,2.0,4.0,97,0.00,,,0.88,76,Wunderground v.1.15,2013-02-27 18:56:00,
2013-02-27 14:04:00,44.9,44.1,29.47,North,360,2.0,2.0,97,0.00,,,0.88,51,Wunderground v.1.15,2013-02-27 19:04:00,
2013-02-27 14:09:00,44.9,44.1,29.47,North,360,2.0,3.0,97,0.00,,,0.88,60,Wunderground v.1.15,2013-02-27 19:09:00,
2013-02-27 14:18:00,44.9,44.1,29.48,North,360,0.0,1.0,97,0.00,,,0.88,72,Wunderground v.1.15,2013-02-27 19:18:00,
2013-02-27 14:23:00,45.1,44.3,29.48,North,360,1.0,1.0,97,0.00,,,0.88,76,Wunderground v.1.15,2013-02-27 19:23:00,
2013-02-27 14:29:00,45.2,44.4,29.48,North,360,1.0,1.0,97,0.00,,,0.88,69,Wunderground v.1.15,2013-02-27 19:29:00,
2013-02-27 14:36:00,45.4,44.6,29.48,North,360,0.0,0.0,97,0.00,,,0.88,76,Wunderground v.1.15,2013-02-27 19:36:00,
2013-02-27 14:43:00,45.5,44.7,29.48,North,360,0.0,2.0,97,0.00,,,0.88,88,Wunderground v.1.15,2013-02-27 19:43:00,
2013-02-27 14:49:00,45.7,44.9,29.48,North,360,1.0,2.0,97,0.00,,,0.88,79,Wunderground v.1.15,2013-02-27 19:49:00,
2013-02-27 14:56:00,45.7,44.9,29.48,North,360,0.0,1.0,97,0.00,,,0.89,91,Wunderground v.1.15,2013-02-27 19:56:00,
2013-02-27 15:03:00,45.7,44.9,29.48,North,360,1.0,1.0,97,0.00,,,0.89,60,Wunderground v.1.15,2013-02-27 20:03:00,
2013-02-27 15:09:00,45.7,44.9,29.48,North,360,0.0,1.0,97,0.00,,,0.89,60,Wunderground v.1.15,2013-02-27 20:09:00,
2013-02-27 15:17:00,45.8,45.0,29.48,North,360,0.0,0.0,97,0.00,,,0.89,47,Wunderground v.1.15,2013-02-27 20:17:00,
2013-02-27 15:23:00,45.8,45.0,29.48,North,360,0.0,0.0,97,0.00,,,0.89,39,Wunderground v.1.15,2013-02-27 20:23:00,
2013-02-27 15:29:00,45.8,45.0,29.48,North,360,0.0,2.0,97,0.00,,,0.89,39,Wunderground v.1.15,2013-02-27 20:29:00,
2013-02-27 15:37:00,45.8,45.0,29.50,North,360,1.0,3.0,97,0.00,,,0.89,40,Wunderground v.1.15,2013-02-27 20:37:00,
2013-02-27 15:43:00,45.8,45.0,29.50,North,360,1.0,1.0,97,0.00,,,0.89,51,Wunderground v.1.15,2013-02-27 20:43:00,
2013-02-27 15:49:00,45.8,45.0,29.50,North,360,0.0,1.0,97,0.00,,,0.89,56,Wunderground v.1.15,2013-02-27 20:49:00,
2013-02-27 15:57:00,46.0,45.2,29.50,North,360,1.0,1.0,97,0.00,,,0.89,51,Wunderground v.1.15,2013-02-27 20:57:00,
2013-02-27 16:03:00,46.0,45.2,29.50,North,360,1.0,2.0,97,0.00,,,0.89,44,Wunderground v.1.15,2013-02-27 21:03:00,
2013-02-27 16:09:00,46.0,45.2,29.50,North,360,1.0,2.0,97,0.00,,,0.89,32,Wunderground v.1.15,2013-02-27 21:09:00,
2013-02-27 16:15:00,46.0,45.2,29.51,North,360,1.0,1.0,97,0.00,,,0.89,33,Wunderground v.1.15,2013-02-27 21:15:00,
2013-02-27 16:20:00,46.0,45.2,29.51,North,360,1.0,1.0,97,0.00,,,0.89,42,Wunderground v.1.15,2013-02-27 21:20:00,
2013-02-27 16:28:00,46.0,45.2,29.51,North,360,0.0,2.0,97,0.00,,,0.89,40,Wunderground v.1.15,2013-02-27 21:28:00,
2013-02-27 16:34:00,46.0,45.2,29.52,North,360,0.0,0.0,97,0.00,,,0.89,30,Wunderground v.1.15,2013-02-27 21:34:00,
2013-02-27 16:40:00,46.0,45.2,29.52,North,360,0.0,0.0,97,0.00,,,0.89,23,Wunderground v.1.15,2013-02-27 21:40:00,
2013-02-27 16:47:00,46.0,45.2,29.52,North,360,1.0,3.0,97,0.00,,,0.89,19,Wunderground v.1.15,2013-02-27 21:47:00,
2013-02-27 16:54:00,46.0,45.2,29.52,North,360,1.0,1.0,97,0.00,,,0.89,28,Wunderground v.1.15,2013-02-27 21:54:00,
2013-02-27 17:00:00,46.0,45.2,29.52,North,360,1.0,2.0,97,0.00,,,0.89,26,Wunderground v.1.15,2013-02-27 22:00:00,
2013-02-27 17:06:00,46.0,45.2,29.52,North,360,1.0,2.0,97,0.00,,,0.89,19,Wunderground v.1.15,2013-02-27 22:06:00,
2013-02-27 17:14:00,46.0,45.2,29.52,North,360,3.0,3.0,97,0.00,,,0.89,16,Wunderground v.1.15,2013-02-27 22:14:00,
2013-02-27 17:20:00,46.0,45.2,29.53,North,360,2.0,3.0,97,0.00,,,0.89,12,Wunderground v.1.15,2013-02-27 22:20:00,
2013-02-27 17:27:00,45.7,44.6,29.53,North,360,3.0,3.0,96,0.00,,,0.89,7,Wunderground v.1.15,2013-02-27 22:27:00,
2013-02-27 17:33:00,45.5,44.2,29.54,North,360,2.0,5.0,95,0.00,,,0.89,5,Wunderground v.1.15,2013-02-27 22:33:00,
2013-02-27 17:39:00,45.2,43.6,29.54,North,360,3.0,5.0,94,0.00,,,0.89,0,Wunderground v.1.15,2013-02-27 22:39:00,
2013-02-27 17:46:00,45.1,42.9,29.55,North,360,4.0,11.0,92,0.00,,,0.89,0,Wunderground v.1.15,2013-02-27 22:46:00,
2013-02-27 17:53:00,45.1,41.8,29.55,North,360,5.0,5.0,88,0.00,,,0.89,0,Wunderground v.1.15,2013-02-27 22:53:00,
2013-02-27 17:59:00,44.9,41.0,29.55,North,360,4.0,12.0,86,0.00,,,0.89,0,Wunderground v.1.15,2013-02-27 22:59:00,
2013-02-27 18:06:00,44.9,39.7,29.56,North,360,5.0,11.0,82,0.00,,,0.89,0,Wunderground v.1.15,2013-02-27 23:06:00,
2013-02-27 18:11:00,44.8,39.0,29.56,North,360,5.0,11.0,80,0.00,,,0.89,0,Wunderground v.1.15,2013-02-27 23:11:00,
2013-02-27 18:17:00,44.6,38.2,29.57,North,360,5.0,7.0,78,0.00,,,0.89,0,Wunderground v.1.15,2013-02-27 23:17:00,
2013-02-27 18:23:00,44.5,37.1,29.57,North,360,5.0,5.0,75,0.00,,,0.89,0,Wunderground v.1.15,2013-02-27 23:23:00,
2013-02-27 18:29:00,44.3,36.9,29.57,North,360,6.0,10.0,75,0.00,,,0.89,0,Wunderground v.1.15,2013-02-27 23:29:00,
2013-02-27 18:36:00,44.2,36.4,29.58,North,360,3.0,5.0,74,0.00,,,0.89,0,Wunderground v.1.15,2013-02-27 23:36:00,
2013-02-27 18:41:00,44.1,36.3,29.58,North,360,2.0,5.0,74,0.00,,,0.89,0,Wunderground v.1.15,2013-02-27 23:41:00,
2013-02-27 18:47:00,43.9,36.5,29.59,North,360,2.0,4.0,75,0.00,,,0.89,0,Wunderground v.1.15,2013-02-27 23:47:00,
2013-02-27 18:53:00,43.8,36.4,29.59,North,360,2.0,2.0,75,0.00,,,0.89,0,Wunderground v.1.15,2013-02-27 23:53:00,
2013-02-27 18:59:00,43.6,36.2,29.59,North,360,2.0,2.0,75,0.00,,,0.89,0,Wunderground v.1.15,2013-02-27 23:59:00,
2013-02-27 19:05:00,43.5,36.1,29.59,North,360,2.0,5.0,75,0.00,,,0.89,0,Wunderground v.1.15,2013-02-28 00:05:00,
2013-02-27 19:10:00,43.5,36.1,29.59,North,360,2.0,5.0,75,0.00,,,0.89,0,Wunderground v.1.15,2013-02-28 00:10:00,
2013-02-27 19:17:00,43.3,36.2,29.59,North,360,1.0,2.0,76,0.00,,,0.89,0,Wunderground v.1.15,2013-02-28 00:17:00,
2013-02-27 19:24:00,43.1,36.0,29.59,North,360,1.0,1.0,76,0.00,,,0.89,0,Wunderground v.1.15,2013-02-28 00:24:00,
2013-02-27 19:30:00,42.9,36.2,29.59,North,360,2.0,2.0,77,0.00,,,0.89,0,Wunderground v.1.15,2013-02-28 00:30:00,
2013-02-27 19:39:00,42.8,36.1,29.59,North,360,1.0,1.0,77,0.00,,,0.89,0,Wunderground v.1.15,2013-02-28 00:39:00,
2013-02-27 19:49:00,42.5,36.1,29.60,North,360,1.0,1.0,78,0.00,,,0.89,0,Wunderground v.1.15,2013-02-28 00:49:00,
2013-02-27 19:59:00,42.2,35.8,29.60,North,360,0.0,0.0,78,0.00,,,0.89,0,Wunderground v.1.15,2013-02-28 00:59:00,
2013-02-27 20:11:00,41.9,35.9,29.60,North,360,0.0,0.0,79,0.00,,,0.89,0,Wunderground v.1.15,2013-02-28 01:11:00,
2013-02-27 20:21:00,41.8,36.1,29.60,North,360,2.0,5.0,80,0.00,,,0.89,0,Wunderground v.1.15,2013-02-28 01:21:00,
2013-02-27 20:31:00,42.2,36.2,29.61,North,360,2.0,2.0,79,0.00,,,0.89,0,Wunderground v.1.15,2013-02-28 01:31:00,
2013-02-27 20:40:00,42.5,36.4,29.61,North,360,1.0,3.0,79,0.00,,,0.89,0,Wunderground v.1.15,2013-02-28 01:40:00,
2013-02-27 20:50:00,42.6,36.2,29.62,North,360,1.0,1.0,78,0.00,,,0.89,0,Wunderground v.1.15,2013-02-28 01:50:00,
2013-02-27 21:01:00,42.9,36.5,29.62,North,360,1.0,1.0,78,0.00,,,0.89,0,Wunderground v.1.15,2013-02-28 02:01:00,
2013-02-27 21:10:00,43.1,36.4,29.62,North,360,1.0,1.0,77,0.00,,,0.89,0,Wunderground v.1.15,2013-02-28 02:10:00,
2013-02-27 21:20:00,43.1,36.4,29.62,North,360,0.0,0.0,77,0.00,,,0.89,0,Wunderground v.1.15,2013-02-28 02:20:00,
2013-02-27 21:30:00,43.1,36.4,29.62,North,360,0.0,0.0,77,0.00,,,0.89,0,Wunderground v.1.15,2013-02-28 02:30:00,
2013-02-27 21:40:00,42.8,36.1,29.62,North,360,0.0,0.0,77,0.00,,,0.89,0,Wunderground v.1.15,2013-02-28 02:40:00,
2013-02-27 21:50:00,42.6,35.9,29.62,North,360,0.0,0.0,77,0.00,,,0.89,0,Wunderground v.1.15,2013-02-28 02:50:00,
2013-02-27 21:58:00,42.5,36.1,29.62,North,360,0.0,1.0,78,0.00,,,0.89,0,Wunderground v.1.15,2013-02-28 02:58:00,
2013-02-27 22:07:00,42.3,35.9,29.61,North,360,0.0,0.0,78,0.00,,,0.89,0,Wunderground v.1.15,2013-02-28 03:07:00,
2013-02-27 22:18:00,42.1,36.1,29.61,North,360,0.0,0.0,79,0.00,,,0.89,0,Wunderground v.1.15,2013-02-28 03:18:00,
2013-02-27 22:28:00,41.8,35.8,29.61,North,360,0.0,0.0,79,0.00,,,0.89,0,Wunderground v.1.15,2013-02-28 03:28:00,
2013-02-27 22:41:00,41.5,35.8,29.61,North,360,1.0,1.0,80,0.00,,,0.89,0,Wunderground v.1.15,2013-02-28 03:41:00,
2013-02-27 22:46:00,41.5,36.1,29.60,North,360,1.0,1.0,81,0.00,,,0.89,0,Wunderground v.1.15,2013-02-28 03:46:00,
2013-02-27 22:54:00,41.5,36.1,29.60,North,360,1.0,1.0,81,0.00,,,0.89,0,Wunderground v.1.15,2013-02-28 03:54:00,
2013-02-27 23:00:00,41.5,36.4,29.59,North,360,0.0,1.0,82,0.00,,,0.89,0,Wunderground v.1.15,2013-02-28 04:00:00,
2013-02-27 23:06:00,41.5,36.4,29.59,North,360,0.0,1.0,82,0.00,,,0.89,0,Wunderground v.1.15,2013-02-28 04:06:00,
2013-02-27 23:13:00,41.6,36.5,29.59,North,360,1.0,2.0,82,0.00,,,0.89,0,Wunderground v.1.15,2013-02-28 04:13:00,
2013-02-27 23:18:00,41.6,36.5,29.57,North,360,3.0,4.0,82,0.00,,,0.89,0,Wunderground v.1.15,2013-02-28 04:18:00,
2013-02-27 23:24:00,41.9,36.8,29.57,North,360,2.0,3.0,82,0.00,,,0.89,0,Wunderground v.1.15,2013-02-28 04:24:00,
2013-02-27 23:30:00,41.9,36.5,29.58,North,360,1.0,1.0,81,0.00,,,0.89,0,Wunderground v.1.15,2013-02-28 04:30:00,
2013-02-27 23:36:00,42.1,36.7,29.58,North,360,1.0,1.0,81,0.00,,,0.89,0,Wunderground v.1.15,2013-02-28 04:36:00,
2013-02-27 23:43:00,42.1,36.7,29.58,NNE,19,1.0,1.0,81,0.00,,,0.89,0,Wunderground v.1.15,2013-02-28 04:43:00,
2013-02-27 23:50:00,42.1,36.7,29.59,NNE,19,0.0,0.0,81,0.00,,,0.89,0,Wunderground v.1.15,2013-02-28 04:50:00,
2013-02-27 23:56:00,42.1,36.7,29.59,NNE,22,1.0,3.0,81,0.00,,,0.89,0,Wunderground v.1.15,2013-02-28 04:56:00,